Time;durP1;ratioP1;P1;durP2;ratioP2;P2;SDS_P1;SDS_P2;PMS_P1;PMS_P2;Temp;Humidity;BMP_temperature;BMP_pressure;BME280_temperature;BME280_humidity;BME280_pressure;Samples;Min_cycle;Max_cycle;Signal;HPM_P1;HPM_P2
2022/11/09 00:02:07;;;;;;;3.33;1.40;;;23.10;48.60;;;;;;5010855;28;20212;-58
2022/11/09 00:04:37;;;;;;;2.22;1.35;;;23.20;48.70;;;;;;5010296;28;20571;-52
2022/11/09 00:07:08;;;;;;;4.30;1.55;;;23.20;48.70;;;;;;5011970;28;20212;-61
2022/11/09 00:09:41;;;;;;;3.33;1.58;;;23.20;48.50;;;;;;5033284;28;20311;-58
2022/11/09 00:12:11;;;;;;;2.85;1.45;;;23.30;48.40;;;;;;5033937;28;20199;-60
2022/11/09 00:14:42;;;;;;;2.47;1.30;;;23.30;48.30;;;;;;5033926;28;20192;-57
2022/11/09 00:17:13;;;;;;;2.00;1.20;;;23.30;48.30;;;;;;5023457;28;20192;-59
2022/11/09 00:19:43;;;;;;;2.75;1.58;;;23.40;48.20;;;;;;5029373;28;20231;-54
2022/11/09 00:22:14;;;;;;;3.50;1.45;;;23.40;48.30;;;;;;5014256;28;20216;-55
2022/11/09 00:24:47;;;;;;;2.42;1.42;;;23.50;48.40;;;;;;5013876;28;20239;-61
2022/11/09 00:27:17;;;;;;;3.60;1.70;;;23.50;48.50;;;;;;5014296;28;20554;-57
2022/11/09 00:29:48;;;;;;;5.63;1.95;;;23.50;48.50;;;;;;5013502;28;20590;-59
2022/11/09 00:32:22;;;;;;;2.63;1.40;;;23.60;48.40;;;;;;5014233;28;20193;-53
2022/11/09 00:34:52;;;;;;;2.95;1.40;;;23.60;48.40;;;;;;5022703;28;20197;-49
2022/11/09 00:37:23;;;;;;;4.13;1.60;;;23.60;48.20;;;;;;5017756;28;20204;-47
2022/11/09 00:39:56;;;;;;;2.72;1.40;;;23.70;48.40;;;;;;5033808;28;20219;-53
2022/11/09 00:42:26;;;;;;;4.47;1.50;;;23.70;48.50;;;;;;5028143;28;20212;-46
2022/11/09 00:44:57;;;;;;;3.47;1.20;;;23.70;48.30;;;;;;5015421;28;20657;-48
2022/11/09 00:47:28;;;;;;;4.55;1.80;;;23.80;48.20;;;;;;5032116;28;20204;-48
2022/11/09 00:49:59;;;;;;;2.53;1.25;;;23.80;48.10;;;;;;5032474;28;20713;-47
2022/11/09 00:52:29;;;;;;;3.63;1.70;;;23.80;48.10;;;;;;5032700;28;20203;-50
2022/11/09 00:55:02;;;;;;;2.15;1.40;;;23.80;48.00;;;;;;5032474;28;20188;-50
2022/11/09 00:57:33;;;;;;;2.90;1.35;;;23.90;48.10;;;;;;5014117;28;20205;-47
2022/11/09 01:00:04;;;;;;;3.28;1.30;;;23.90;48.00;;;;;;5013219;28;20208;-47
2022/11/09 01:02:34;;;;;;;2.03;1.40;;;23.90;48.00;;;;;;5013506;28;20289;-52
2022/11/09 01:05:05;;;;;;;2.13;1.30;;;24.00;48.00;;;;;;5013045;28;20193;-55
2022/11/09 01:07:36;;;;;;;2.38;1.35;;;24.00;48.00;;;;;;5019148;28;20211;-48
2022/11/09 01:10:10;;;;;;;3.90;1.58;;;24.00;48.00;;;;;;5024635;28;20233;-52
2022/11/09 01:12:41;;;;;;;2.38;1.30;;;24.10;48.10;;;;;;5013107;28;20192;-54
2022/11/09 01:15:12;;;;;;;2.78;1.35;;;24.10;48.10;;;;;;5018441;28;20192;-50
2022/11/09 01:17:43;;;;;;;1.42;1.20;;;24.10;48.00;;;;;;5019524;28;20671;-53
2022/11/09 01:20:14;;;;;;;1.65;1.30;;;24.10;48.10;;;;;;5012063;28;20212;-48
2022/11/09 01:22:45;;;;;;;3.00;1.63;;;24.20;48.00;;;;;;5012757;28;20193;-51
2022/11/09 01:25:18;;;;;;;4.13;1.60;;;24.20;47.80;;;;;;5018482;28;20192;-53
2022/11/09 01:27:51;;;;;;;3.72;1.40;;;24.20;47.60;;;;;;5032334;28;20204;-52
2022/11/09 01:30:21;;;;;;;1.95;1.30;;;24.20;47.60;;;;;;5024508;28;20589;-50
2022/11/09 01:32:52;;;;;;;2.47;1.52;;;24.30;47.60;;;;;;5016707;28;20199;-54
2022/11/09 01:35:23;;;;;;;2.28;1.17;;;24.30;47.60;;;;;;5020422;28;20328;-48
2022/11/09 01:37:53;;;;;;;3.33;1.35;;;24.40;47.60;;;;;;5021390;28;20200;-55
2022/11/09 01:40:27;;;;;;;2.70;1.40;;;24.40;47.50;;;;;;5032857;28;20208;-49
2022/11/09 01:42:57;;;;;;;3.85;1.50;;;24.40;47.40;;;;;;5032449;28;20192;-48
2022/11/09 01:45:30;;;;;;;1.70;1.30;;;24.40;47.50;;;;;;5032626;28;20207;-49
2022/11/09 01:48:06;;;;;;;2.60;1.27;;;24.50;47.50;;;;;;5025278;23;20339;-45
2022/11/09 01:50:43;;;;;;;2.35;1.27;;;24.50;47.40;;;;;;5008830;28;20382;-44
2022/11/09 01:53:18;;;;;;;1.60;1.00;;;24.50;47.50;;;;;;5012500;28;20197;-45
2022/11/09 01:55:55;;;;;;;1.83;1.20;;;24.50;47.50;;;;;;5011711;28;20193;-44
2022/11/09 01:58:30;;;;;;;1.20;1.10;;;24.60;47.50;;;;;;5011241;28;20759;-45
2022/11/09 02:01:02;;;;;;;2.70;1.70;;;24.60;47.40;;;;;;5011907;28;20208;-44
2022/11/09 02:03:36;;;;;;;3.17;1.52;;;24.60;47.40;;;;;;5012553;28;20193;-45
2022/11/09 02:06:09;;;;;;;1.30;0.82;;;24.70;47.40;;;;;;5011572;28;20208;-46
2022/11/09 02:08:41;;;;;;;3.97;1.35;;;24.70;47.20;;;;;;5011806;28;20201;-44
2022/11/09 02:11:14;;;;;;;2.33;1.42;;;24.70;47.00;;;;;;5011674;28;20426;-47
2022/11/09 02:13:48;;;;;;;2.22;1.10;;;24.80;46.90;;;;;;5011247;28;20196;-45
2022/11/09 02:16:20;;;;;;;2.05;1.15;;;24.80;46.80;;;;;;5012023;28;20196;-44
2022/11/09 02:18:54;;;;;;;3.20;1.33;;;24.80;46.70;;;;;;5012659;28;20200;-45
2022/11/09 02:21:28;;;;;;;1.35;1.10;;;24.90;46.80;;;;;;5011671;28;20208;-44
2022/11/09 02:24:00;;;;;;;3.42;1.60;;;24.90;46.80;;;;;;5011785;28;20211;-44
2022/11/09 02:26:35;;;;;;;3.78;1.33;;;24.90;46.80;;;;;;5012792;28;20192;-44
2022/11/09 02:29:11;;;;;;;2.88;1.33;;;24.90;46.60;;;;;;5011548;28;20232;-44
2022/11/09 02:31:44;;;;;;;2.95;1.30;;;24.90;46.60;;;;;;5011852;28;20660;-46
2022/11/09 02:34:17;;;;;;;2.45;1.02;;;25.00;46.50;;;;;;5011160;28;20200;-48
2022/11/09 02:36:50;;;;;;;1.48;1.10;;;25.00;46.40;;;;;;5011788;28;20193;-44
2022/11/09 02:39:22;;;;;;;2.45;1.13;;;25.10;46.30;;;;;;5009201;28;20228;-45
2022/11/09 02:41:55;;;;;;;1.67;1.20;;;25.10;46.20;;;;;;5011561;28;20288;-44
2022/11/09 02:44:27;;;;;;;1.92;1.30;;;25.10;46.10;;;;;;5010323;28;20205;-48
2022/11/09 02:46:58;;;;;;;2.20;1.20;;;25.20;46.10;;;;;;5026103;23;20193;-49
2022/11/09 02:49:28;;;;;;;2.65;1.10;;;25.20;46.10;;;;;;5030236;28;20235;-61
2022/11/09 02:52:01;;;;;;;2.05;1.20;;;25.30;46.20;;;;;;5030359;28;20196;-53
2022/11/09 02:54:32;;;;;;;2.38;1.23;;;25.30;46.10;;;;;;5022278;28;20204;-53
2022/11/09 02:57:03;;;;;;;2.00;1.17;;;25.30;46.10;;;;;;5024664;28;20196;-50
2022/11/09 02:59:34;;;;;;;2.65;1.30;;;25.30;46.10;;;;;;5031375;28;20585;-47
2022/11/09 03:02:04;;;;;;;1.67;1.00;;;25.40;46.10;;;;;;5025624;28;20188;-59
2022/11/09 03:04:35;;;;;;;2.30;1.17;;;25.40;46.10;;;;;;5026582;28;20200;-55
2022/11/09 03:07:08;;;;;;;3.00;1.00;;;25.40;45.90;;;;;;5013138;28;20284;-56
2022/11/09 03:09:39;;;;;;;2.38;1.20;;;25.50;45.90;;;;;;5011620;28;20255;-59
2022/11/09 03:14:53;;;;;;;2.50;1.15;;;25.50;45.70;;;;;;5011604;28;20189;-60
2022/11/09 03:17:24;;;;;;;2.47;1.20;;;25.60;45.60;;;;;;5011614;28;20497;-52
2022/11/09 03:19:55;;;;;;;2.65;1.33;;;25.60;45.60;;;;;;5010598;28;20216;-59
2022/11/09 03:22:28;;;;;;;2.80;1.52;;;25.60;45.50;;;;;;5011704;28;20193;-53
2022/11/09 03:24:59;;;;;;;2.15;1.10;;;25.70;45.60;;;;;;5009904;28;20348;-56
2022/11/09 03:27:30;;;;;;;4.60;1.20;;;25.70;45.50;;;;;;5010492;28;20287;-55
2022/11/09 03:30:01;;;;;;;2.50;1.23;;;25.70;45.50;;;;;;5010316;28;20221;-56
2022/11/09 03:32:31;;;;;;;2.08;1.30;;;25.80;45.60;;;;;;5019703;28;20644;-59
2022/11/09 03:35:02;;;;;;;2.80;1.20;;;25.80;45.60;;;;;;5020984;28;20197;-54
2022/11/09 03:37:35;;;;;;;2.03;1.20;;;25.80;45.70;;;;;;5028352;28;20204;-54
2022/11/09 03:40:06;;;;;;;3.03;1.25;;;25.80;45.80;;;;;;5031290;28;20239;-50
2022/11/09 03:42:37;;;;;;;2.50;1.35;;;25.90;45.70;;;;;;5030390;28;20556;-62
2022/11/09 03:45:09;;;;;;;2.13;1.20;;;25.90;45.70;;;;;;5030987;28;20557;-61
2022/11/09 03:47:43;;;;;;;2.20;1.20;;;25.90;45.60;;;;;;5030074;28;20609;-55
2022/11/09 03:50:14;;;;;;;3.65;1.27;;;25.90;45.50;;;;;;5030535;28;20228;-52
2022/11/09 03:52:49;;;;;;;2.30;1.35;;;26.00;45.60;;;;;;5029864;28;20218;-56
2022/11/09 03:55:20;;;;;;;2.83;1.20;;;26.00;45.60;;;;;;5029648;28;20556;-55
2022/11/09 03:57:51;;;;;;;1.70;1.40;;;26.00;45.60;;;;;;5029911;28;20644;-54
2022/11/09 04:00:23;;;;;;;3.65;1.50;;;26.00;45.50;;;;;;5030719;28;20216;-48
2022/11/09 04:02:54;;;;;;;3.20;1.52;;;26.10;45.50;;;;;;5029938;28;20378;-48
2022/11/09 04:05:25;;;;;;;3.60;1.60;;;26.10;45.50;;;;;;5030566;28;20196;-48
2022/11/09 04:07:58;;;;;;;3.78;1.33;;;26.10;45.50;;;;;;5030383;28;20208;-60
2022/11/09 04:10:29;;;;;;;6.30;2.10;;;26.10;45.40;;;;;;5029702;28;20695;-52
2022/11/09 04:13:00;;;;;;;6.60;2.25;;;26.10;45.40;;;;;;5030471;28;20196;-59
2022/11/09 04:15:33;;;;;;;5.70;2.58;;;26.10;45.50;;;;;;5030028;28;20211;-60
2022/11/09 04:18:05;;;;;;;8.90;2.53;;;26.10;45.50;;;;;;5013732;28;20219;-47
2022/11/09 04:20:35;;;;;;;6.90;2.40;;;26.20;45.70;;;;;;5010342;28;20688;-49
2022/11/09 04:23:09;;;;;;;6.25;2.50;;;26.20;45.70;;;;;;5022747;28;20207;-59
2022/11/09 04:25:41;;;;;;;6.38;2.28;;;26.20;45.70;;;;;;5029655;28;20290;-56
2022/11/09 04:28:14;;;;;;;6.18;2.10;;;26.20;45.70;;;;;;5026995;28;20196;-58
2022/11/09 04:30:45;;;;;;;5.30;2.20;;;26.20;45.70;;;;;;5028292;28;20235;-46
2022/11/09 04:33:16;;;;;;;5.03;1.88;;;26.20;45.70;;;;;;5010329;28;20197;-50
2022/11/09 04:35:49;;;;;;;3.80;2.10;;;26.20;45.70;;;;;;5026195;28;20200;-55
2022/11/09 04:38:22;;;;;;;3.60;1.88;;;26.20;45.70;;;;;;5030074;28;20870;-58
2022/11/09 04:40:53;;;;;;;5.03;1.77;;;26.20;45.70;;;;;;5029984;28;20212;-54
2022/11/09 04:43:24;;;;;;;6.00;1.67;;;26.20;45.70;;;;;;5009785;28;20633;-48
2022/11/09 04:45:55;;;;;;;5.68;2.30;;;26.20;45.70;;;;;;5012798;28;20220;-54
2022/11/09 04:48:26;;;;;;;6.15;1.95;;;26.20;45.60;;;;;;5021175;28;20211;-53
2022/11/09 04:51:02;;;;;;;5.30;2.00;;;26.20;45.60;;;;;;5030275;28;20224;-60
2022/11/09 04:53:35;;;;;;;4.00;1.73;;;26.20;45.40;;;;;;5010469;28;20251;-60
2022/11/09 04:56:07;;;;;;;3.63;1.60;;;26.20;45.40;;;;;;5013511;28;20657;-49
2022/11/09 04:58:37;;;;;;;5.60;1.63;;;26.20;45.40;;;;;;5014685;28;20215;-53
2022/11/09 05:01:09;;;;;;;2.67;1.77;;;26.20;45.50;;;;;;5013877;28;20212;-52
2022/11/09 05:03:40;;;;;;;3.85;1.42;;;26.20;45.40;;;;;;5032808;28;20203;-53
2022/11/09 05:08:57;;;;;;;2.90;1.35;;;26.20;45.40;;;;;;5033684;28;20231;-48
2022/11/09 05:11:28;;;;;;;3.38;1.60;;;26.20;45.40;;;;;;5032498;28;20235;-52
2022/11/09 05:13:59;;;;;;;5.32;1.85;;;26.30;46.00;;;;;;5033597;28;20196;-52
2022/11/09 05:16:30;;;;;;;3.35;1.52;;;26.30;45.30;;;;;;5029259;28;20220;-53
2022/11/09 05:19:00;;;;;;;3.50;1.40;;;26.30;45.10;;;;;;5013220;28;20685;-59
2022/11/09 05:21:31;;;;;;;4.07;1.58;;;26.20;44.80;;;;;;5015672;28;20580;-58
2022/11/09 05:24:02;;;;;;;2.85;1.30;;;26.20;44.70;;;;;;5032207;28;20200;-57
2022/11/09 05:26:35;;;;;;;3.55;1.60;;;26.20;44.60;;;;;;5033248;28;20204;-57
2022/11/09 05:29:08;;;;;;;3.20;1.33;;;26.30;44.60;;;;;;5032757;28;20616;-55
2022/11/09 05:31:40;;;;;;;3.35;1.60;;;26.20;44.30;;;;;;5032949;28;20346;-62
2022/11/09 05:34:15;;;;;;;4.55;1.30;;;26.20;44.70;;;;;;5029612;28;20227;-52
2022/11/09 05:36:46;;;;;;;2.97;1.30;;;26.20;44.90;;;;;;5012879;28;20224;-57
2022/11/09 05:39:18;;;;;;;3.33;1.17;;;26.20;44.80;;;;;;5032019;28;20304;-55
2022/11/09 05:41:49;;;;;;;2.15;1.30;;;26.30;44.80;;;;;;5032805;28;20189;-60
2022/11/09 05:44:20;;;;;;;2.58;1.40;;;26.30;44.80;;;;;;5032334;28;20207;-58
2022/11/09 05:46:50;;;;;;;1.55;1.17;;;26.30;44.80;;;;;;5032423;28;20587;-58
2022/11/09 05:49:21;;;;;;;3.22;1.23;;;26.30;44.80;;;;;;5031839;28;20597;-54
2022/11/09 05:51:52;;;;;;;3.75;1.40;;;26.30;44.70;;;;;;5032234;28;20494;-60
2022/11/09 05:54:24;;;;;;;2.28;1.40;;;26.40;44.70;;;;;;5033422;28;20562;-61
2022/11/09 05:56:55;;;;;;;3.03;1.30;;;26.30;44.60;;;;;;5031418;28;20597;-57
2022/11/09 05:59:26;;;;;;;3.30;1.30;;;26.40;44.70;;;;;;5032612;28;20220;-56
2022/11/09 06:01:57;;;;;;;2.92;1.58;;;26.40;44.70;;;;;;5031928;28;20195;-59
2022/11/09 06:04:27;;;;;;;2.78;1.48;;;26.40;44.60;;;;;;5029834;28;20565;-53
2022/11/09 06:06:58;;;;;;;4.25;1.38;;;26.40;44.40;;;;;;5028545;28;20204;-56
2022/11/09 06:09:31;;;;;;;2.55;1.60;;;26.40;44.40;;;;;;5031228;28;20352;-57
2022/11/09 06:12:02;;;;;;;2.83;1.35;;;26.40;44.30;;;;;;5016557;28;20709;-59
2022/11/09 06:14:33;;;;;;;3.42;1.60;;;26.40;44.40;;;;;;5032170;28;20200;-55
2022/11/09 06:17:03;;;;;;;3.47;1.48;;;26.40;44.40;;;;;;5032114;28;20531;-58
2022/11/09 06:19:34;;;;;;;2.15;1.30;;;26.40;44.40;;;;;;5031538;28;20216;-60
2022/11/09 06:22:05;;;;;;;5.43;2.00;;;26.40;44.30;;;;;;5027379;28;20196;-54
2022/11/09 06:24:37;;;;;;;4.78;2.92;;;26.40;44.50;;;;;;5011489;28;20274;-56
2022/11/09 06:27:08;;;;;;;8.18;4.90;;;26.40;44.40;;;;;;5012049;28;20566;-57
2022/11/09 06:29:39;;;;;;;6.93;3.30;;;26.40;44.40;;;;;;5029058;28;20364;-59
2022/11/09 06:32:09;;;;;;;6.28;3.80;;;26.40;44.40;;;;;;5032380;28;20220;-57
2022/11/09 06:34:42;;;;;;;10.32;3.75;;;26.40;44.50;;;;;;5031399;28;20252;-55
2022/11/09 06:37:12;;;;;;;6.20;4.13;;;26.40;44.50;;;;;;5031222;28;20215;-59
2022/11/09 06:39:46;;;;;;;8.30;4.50;;;26.40;44.40;;;;;;5032353;28;20216;-55
2022/11/09 06:42:17;;;;;;;5.68;3.65;;;26.40;44.40;;;;;;5032242;28;20196;-56
2022/11/09 06:44:47;;;;;;;7.10;4.40;;;26.40;44.50;;;;;;5032266;28;20203;-53
2022/11/09 06:47:18;;;;;;;8.15;4.55;;;26.40;45.10;;;;;;5032691;28;20204;-52
2022/11/09 06:49:49;;;;;;;6.22;4.65;;;26.30;44.40;;;;;;5032042;28;20251;-56
2022/11/09 06:52:19;;;;;;;7.50;4.47;;;26.30;44.40;;;;;;5032004;28;20204;-52
2022/11/09 06:54:52;;;;;;;9.05;4.25;;;26.30;44.50;;;;;;5029324;28;20203;-51
2022/11/09 06:57:23;;;;;;;9.18;4.53;;;26.30;44.60;;;;;;5031615;28;20196;-51
2022/11/09 06:59:54;;;;;;;8.52;4.35;;;26.30;44.60;;;;;;5030920;28;20212;-54
2022/11/09 07:02:25;;;;;;;6.45;4.07;;;26.30;44.60;;;;;;5027902;28;20652;-51
2022/11/09 07:04:56;;;;;;;5.13;3.78;;;26.30;44.60;;;;;;5030996;28;20211;-54
2022/11/09 07:07:27;;;;;;;7.10;4.18;;;26.30;44.70;;;;;;5031120;28;20576;-51
2022/11/09 07:09:59;;;;;;;7.50;3.97;;;26.20;44.60;;;;;;5030986;28;20220;-51
2022/11/09 07:12:31;;;;;;;6.57;4.13;;;26.20;44.60;;;;;;5016889;28;20440;-53
2022/11/09 07:15:02;;;;;;;7.25;4.13;;;26.20;44.60;;;;;;5011894;28;20236;-54
2022/11/09 07:17:33;;;;;;;7.50;4.35;;;26.20;44.70;;;;;;5011387;28;20323;-53
2022/11/09 07:20:04;;;;;;;5.55;3.35;;;26.20;44.70;;;;;;5011638;28;20229;-53
2022/11/09 07:22:38;;;;;;;4.95;3.40;;;26.10;44.70;;;;;;5011538;28;20193;-52
2022/11/09 07:25:12;;;;;;;5.35;3.58;;;26.10;44.70;;;;;;5011572;28;20402;-54
2022/11/09 07:27:43;;;;;;;4.78;3.13;;;26.10;44.80;;;;;;5011744;28;20197;-53
2022/11/09 07:30:14;;;;;;;4.25;3.22;;;26.10;44.80;;;;;;5011263;28;20224;-49
2022/11/09 07:32:45;;;;;;;5.13;3.30;;;26.00;44.80;;;;;;5011230;28;20193;-54
2022/11/09 07:35:16;;;;;;;4.30;3.00;;;26.00;44.90;;;;;;5011396;28;20657;-51
2022/11/09 07:37:47;;;;;;;4.88;3.28;;;25.90;44.80;;;;;;5018539;28;20200;-54
2022/11/09 07:40:21;;;;;;;5.40;3.60;;;25.90;44.90;;;;;;5031122;28;20216;-53
2022/11/09 07:42:51;;;;;;;6.22;3.40;;;25.90;45.00;;;;;;5031093;28;20200;-52
2022/11/09 07:45:22;;;;;;;5.65;3.13;;;25.90;45.00;;;;;;5031171;28;20200;-51
2022/11/09 07:47:58;;;;;;;4.50;3.17;;;25.90;45.00;;;;;;5026774;28;20192;-53
2022/11/09 07:50:29;;;;;;;6.43;3.35;;;25.80;44.90;;;;;;5011322;28;20307;-51
2022/11/09 07:53:01;;;;;;;4.78;2.95;;;25.80;44.90;;;;;;5011542;28;20193;-51
2022/11/09 07:55:34;;;;;;;6.32;3.20;;;25.80;45.00;;;;;;5011544;28;20243;-49
2022/11/09 07:58:06;;;;;;;6.13;3.28;;;25.70;45.00;;;;;;5011684;28;20207;-52
2022/11/09 08:00:39;;;;;;;5.97;3.33;;;25.70;45.00;;;;;;5011975;28;20224;-60
2022/11/09 08:03:10;;;;;;;5.43;2.80;;;25.60;44.90;;;;;;5011330;28;20193;-55
2022/11/09 08:05:41;;;;;;;4.72;3.10;;;25.60;45.00;;;;;;5011144;28;20209;-50
2022/11/09 08:08:16;;;;;;;6.18;2.95;;;25.60;45.00;;;;;;5022093;28;20204;-51
2022/11/09 08:10:51;;;;;;;5.00;2.92;;;25.50;45.10;;;;;;5030787;28;20285;-47
2022/11/09 08:13:22;;;;;;;6.55;2.92;;;25.40;45.00;;;;;;5030974;28;20678;-52
2022/11/09 08:15:53;;;;;;;6.90;2.90;;;25.40;45.10;;;;;;5031057;28;20196;-51
2022/11/09 08:18:24;;;;;;;4.30;2.50;;;25.40;45.10;;;;;;5021661;28;20192;-57
2022/11/09 08:20:55;;;;;;;4.95;2.72;;;25.30;45.10;;;;;;5022930;28;20235;-52
2022/11/09 08:23:26;;;;;;;4.55;2.40;;;25.30;45.10;;;;;;5019480;28;20193;-56
2022/11/09 08:25:58;;;;;;;4.22;2.58;;;25.30;45.10;;;;;;5030502;28;20203;-56
2022/11/09 08:28:29;;;;;;;7.38;2.65;;;25.30;45.20;;;;;;5030641;28;20192;-60
2022/11/09 08:31:01;;;;;;;6.07;2.58;;;25.20;45.10;;;;;;5032991;28;20250;-57
2022/11/09 08:33:33;;;;;;;4.60;2.38;;;25.20;45.10;;;;;;5023251;28;20193;-49
2022/11/09 08:36:03;;;;;;;4.50;2.58;;;25.10;45.10;;;;;;5016411;28;20181;-59
2022/11/09 08:38:34;;;;;;;4.60;2.38;;;25.10;45.20;;;;;;5033824;28;20203;-55
2022/11/09 08:41:07;;;;;;;5.38;2.95;;;25.00;45.20;;;;;;5030591;28;20647;-57
2022/11/09 08:43:38;;;;;;;5.53;2.45;;;25.00;45.30;;;;;;5033714;28;20203;-60
2022/11/09 08:46:09;;;;;;;4.93;2.60;;;25.00;45.30;;;;;;5033299;28;20204;-60
2022/11/09 08:48:39;;;;;;;4.38;2.63;;;24.90;45.30;;;;;;5022068;28;20197;-59
2022/11/09 08:51:10;;;;;;;4.25;2.35;;;24.90;45.40;;;;;;5013852;28;20221;-61
2022/11/09 08:53:41;;;;;;;4.07;2.40;;;24.90;46.00;;;;;;5014190;28;20201;-52
2022/11/09 08:56:17;;;;;;;4.07;2.17;;;24.80;45.40;;;;;;5014154;28;20204;-59
2022/11/09 08:58:50;;;;;;;4.80;2.35;;;24.80;45.40;;;;;;5013903;28;20193;-59
2022/11/09 09:01:21;;;;;;;5.05;2.90;;;24.80;45.50;;;;;;5013560;28;20204;-60
2022/11/09 09:03:52;;;;;;;5.78;2.17;;;24.70;45.50;;;;;;5025226;28;20203;-54
2022/11/09 09:06:23;;;;;;;5.28;2.38;;;24.70;45.50;;;;;;5033131;28;20267;-54
2022/11/09 09:08:54;;;;;;;3.40;2.05;;;24.70;45.60;;;;;;5032727;28;20206;-55
2022/11/09 09:11:26;;;;;;;4.40;2.25;;;24.70;45.60;;;;;;5029876;28;20227;-57
2022/11/09 09:13:57;;;;;;;4.10;2.10;;;24.60;45.60;;;;;;5030293;28;20354;-62
2022/11/09 09:16:28;;;;;;;5.10;2.10;;;24.60;45.60;;;;;;5033626;28;20204;-60
2022/11/09 09:18:59;;;;;;;4.20;2.45;;;24.50;45.60;;;;;;5033219;28;20220;-56
2022/11/09 09:21:29;;;;;;;2.50;1.92;;;24.50;45.80;;;;;;5032842;28;20232;-57
2022/11/09 09:24:00;;;;;;;6.57;2.30;;;24.50;45.70;;;;;;5033522;28;20199;-57
2022/11/09 09:26:33;;;;;;;4.53;2.30;;;24.50;45.80;;;;;;5032800;28;20200;-59
2022/11/09 09:29:03;;;;;;;3.33;2.05;;;24.40;45.70;;;;;;5032556;28;20699;-56
2022/11/09 09:31:34;;;;;;;3.28;1.98;;;24.40;45.80;;;;;;5032426;28;20228;-55
2022/11/09 09:34:05;;;;;;;3.05;2.00;;;24.30;45.80;;;;;;5032784;28;20558;-54
2022/11/09 09:36:36;;;;;;;3.22;1.80;;;24.30;45.80;;;;;;5033007;28;20204;-54
2022/11/09 09:39:07;;;;;;;4.22;2.17;;;24.30;45.80;;;;;;5031740;28;20220;-61
2022/11/09 09:41:44;;;;;;;5.28;2.17;;;24.30;45.90;;;;;;5033477;28;20207;-59
2022/11/09 09:44:26;;;;;;;3.97;2.20;;;24.20;45.90;;;;;;5032757;28;20192;-53
2022/11/09 09:47:08;;;;;;;5.38;1.92;;;24.20;45.90;;;;;;5032724;28;20200;-56
2022/11/09 09:49:41;;;;;;;3.42;2.00;;;24.20;45.90;;;;;;5012796;28;20227;-52
2022/11/09 09:52:24;;;;;;;2.97;2.00;;;24.20;46.00;;;;;;5012898;28;20225;-54
2022/11/09 09:55:03;;;;;;;3.97;2.00;;;24.10;45.90;;;;;;5030618;28;20200;-61
2022/11/09 09:57:38;;;;;;;3.00;1.63;;;24.10;46.00;;;;;;5031146;28;20655;-59
2022/11/09 10:00:16;;;;;;;5.10;2.17;;;24.00;46.00;;;;;;5032153;28;20220;-56
2022/11/09 10:02:50;;;;;;;3.75;2.22;;;24.00;46.00;;;;;;5032750;28;20192;-57
2022/11/09 10:05:26;;;;;;;3.15;1.65;;;24.00;46.10;;;;;;5012930;28;20197;-61
2022/11/09 10:08:08;;;;;;;2.72;1.70;;;24.00;46.10;;;;;;5021364;28;20196;-55
2022/11/09 10:10:48;;;;;;;4.72;2.22;;;24.00;46.10;;;;;;5032026;28;20225;-55
2022/11/09 10:13:36;;;;;;;2.72;1.55;;;23.90;46.10;;;;;;5022593;28;20691;-49
2022/11/09 10:16:13;;;;;;;3.00;1.92;;;23.90;46.10;;;;;;5018580;28;20200;-48
2022/11/09 10:18:56;;;;;;;2.85;1.58;;;23.90;46.10;;;;;;5032494;28;20195;-54
2022/11/09 10:21:38;;;;;;;3.78;1.73;;;23.80;46.10;;;;;;5032309;28;20199;-54
2022/11/09 10:24:19;;;;;;;4.43;1.77;;;23.80;46.10;;;;;;5031955;28;20562;-59
2022/11/09 10:26:52;;;;;;;3.00;1.95;;;23.70;46.10;;;;;;5032170;28;20223;-62
2022/11/09 10:29:27;;;;;;;3.08;1.70;;;23.70;46.10;;;;;;5027846;28;20219;-62
2022/11/09 10:32:02;;;;;;;3.42;1.75;;;23.70;46.20;;;;;;5027796;28;20689;-62
2022/11/09 10:34:39;;;;;;;2.42;1.70;;;23.70;46.30;;;;;;5018709;28;20200;-59
2022/11/09 10:37:17;;;;;;;4.72;1.83;;;23.60;46.20;;;;;;5014821;28;20208;-64
2022/11/09 10:39:58;;;;;;;3.00;1.77;;;23.60;46.30;;;;;;5031554;28;20207;-64
2022/11/09 10:42:28;;;;;;;2.63;1.77;;;23.60;46.30;;;;;;5024074;28;20554;-60
2022/11/09 10:45:06;;;;;;;2.95;1.83;;;23.60;46.30;;;;;;5022452;28;20197;-59
2022/11/09 10:47:49;;;;;;;3.63;1.80;;;23.60;46.30;;;;;;5013579;28;20200;-57
2022/11/09 10:50:34;;;;;;;3.10;1.95;;;23.50;46.30;;;;;;5010963;28;20570;-56
2022/11/09 10:53:18;;;;;;;2.15;1.65;;;23.50;46.30;;;;;;5011878;28;20270;-59
2022/11/09 10:55:56;;;;;;;2.78;1.73;;;23.50;46.30;;;;;;5012815;28;20200;-58
2022/11/09 10:58:32;;;;;;;3.58;1.95;;;23.50;46.30;;;;;;5012710;28;20203;-60
2022/11/09 11:01:07;;;;;;;1.83;1.42;;;23.50;46.40;;;;;;5012535;28;20286;-60
2022/11/09 11:03:39;;;;;;;2.95;1.95;;;23.40;46.30;;;;;;5012329;28;20193;-60
2022/11/09 11:06:18;;;;;;;3.10;1.65;;;23.40;46.40;;;;;;5011873;28;20204;-60
2022/11/09 11:08:49;;;;;;;5.47;2.03;;;23.40;46.40;;;;;;5014103;28;20199;-61
2022/11/09 11:11:30;;;;;;;2.35;1.90;;;23.30;46.40;;;;;;5011805;28;20203;-59
2022/11/09 11:14:15;;;;;;;2.63;1.58;;;23.30;46.40;;;;;;5012160;28;20200;-58
2022/11/09 11:16:49;;;;;;;3.17;1.52;;;23.30;46.50;;;;;;5012165;28;20239;-57
2022/11/09 11:19:44;;;;;;;3.20;1.70;;;23.30;46.40;;;;;;5011593;28;20513;-59
2022/11/09 11:22:23;;;;;;;3.20;1.60;;;23.30;46.50;;;;;;5002578;28;20262;-60
2022/11/09 11:24:59;;;;;;;3.95;1.70;;;23.30;46.50;;;;;;5011682;28;20205;-61
2022/11/09 11:27:34;;;;;;;3.05;1.80;;;23.20;46.50;;;;;;5011819;28;20665;-62
2022/11/09 11:30:12;;;;;;;3.55;1.55;;;23.20;46.40;;;;;;5011738;28;20216;-61
2022/11/09 11:32:47;;;;;;;4.15;1.70;;;23.20;46.50;;;;;;5011757;28;20227;-61
2022/11/09 11:35:20;;;;;;;2.75;1.80;;;23.10;46.50;;;;;;5012201;28;20381;-59
2022/11/09 11:38:01;;;;;;;3.50;1.63;;;23.10;46.50;;;;;;5019650;28;20555;-58
2022/11/09 11:40:36;;;;;;;3.92;1.67;;;23.10;46.50;;;;;;5031630;28;20227;-58
2022/11/09 11:43:29;;;;;;;2.30;1.50;;;23.10;46.60;;;;;;5031522;28;20195;-60
2022/11/09 11:46:09;;;;;;;3.20;1.95;;;23.00;46.60;;;;;;5030850;28;20200;-59
2022/11/09 11:49:09;;;;;;;2.60;1.70;;;23.00;46.60;;;;;;5020351;28;20208;-59
2022/11/09 11:51:47;;;;;;;2.55;1.38;;;23.00;46.70;;;;;;5011289;28;20205;-59
2022/11/09 11:54:25;;;;;;;3.20;1.75;;;23.00;46.70;;;;;;5011452;28;20196;-60
2022/11/09 11:57:07;;;;;;;4.05;1.95;;;22.90;46.60;;;;;;5011654;28;20196;-58
2022/11/09 12:00:00;;;;;;;4.07;1.70;;;22.90;46.60;;;;;;5011766;28;20676;-61
2022/11/09 12:03:02;;;;;;;3.28;1.38;;;22.90;46.70;;;;;;5011594;28;20201;-59
2022/11/09 12:06:00;;;;;;;3.75;1.90;;;22.90;46.70;;;;;;5015631;28;20697;-60
2022/11/09 12:08:43;;;;;;;3.28;1.65;;;22.90;46.70;;;;;;5027554;28;20631;-60
2022/11/09 12:11:23;;;;;;;3.47;1.50;;;22.90;46.80;;;;;;5034956;28;20202;-60
2022/11/09 12:14:02;;;;;;;5.25;1.85;;;22.80;46.80;;;;;;5034537;28;20227;-60
2022/11/09 12:16:40;;;;;;;3.83;1.70;;;22.80;46.80;;;;;;5035164;28;20204;-60
2022/11/09 12:19:29;;;;;;;4.05;1.90;;;22.80;46.80;;;;;;5035235;28;20269;-58
2022/11/09 12:22:08;;;;;;;2.85;1.70;;;22.80;46.90;;;;;;5035047;28;20686;-60
2022/11/09 12:24:48;;;;;;;4.03;1.92;;;22.70;46.90;;;;;;5035260;28;20478;-58
2022/11/09 12:27:47;;;;;;;4.25;1.88;;;22.70;46.90;;;;;;5034687;28;20210;-59
2022/11/09 12:30:20;;;;;;;3.92;1.95;;;22.70;46.90;;;;;;5034123;28;20231;-59
2022/11/09 12:32:56;;;;;;;2.97;1.45;;;22.70;46.90;;;;;;5034239;28;20591;-59
2022/11/09 12:35:33;;;;;;;2.35;1.52;;;22.60;46.90;;;;;;5034360;28;20679;-58
2022/11/09 12:38:13;;;;;;;3.30;1.77;;;22.60;46.90;;;;;;5029322;28;20200;-58
2022/11/09 12:40:50;;;;;;;2.88;1.50;;;22.60;46.90;;;;;;5034876;28;20223;-58
2022/11/09 12:43:25;;;;;;;4.10;1.83;;;22.60;47.00;;;;;;5034415;28;20203;-58
2022/11/09 12:45:58;;;;;;;3.38;1.70;;;22.60;47.00;;;;;;5033721;28;20577;-57
2022/11/09 12:48:30;;;;;;;3.13;1.83;;;22.60;47.00;;;;;;5024917;28;20201;-58
2022/11/09 12:51:03;;;;;;;2.53;1.42;;;22.50;47.00;;;;;;5014649;28;20228;-59
2022/11/09 12:53:37;;;;;;;2.95;1.60;;;22.50;47.00;;;;;;5014240;28;20229;-59
2022/11/09 12:56:12;;;;;;;3.05;1.65;;;22.50;47.10;;;;;;5014536;28;20200;-59
2022/11/09 12:58:43;;;;;;;3.17;1.60;;;22.50;47.10;;;;;;5017435;28;20192;-55
2022/11/09 13:01:16;;;;;;;2.55;1.50;;;22.50;47.10;;;;;;5014284;28;20197;-59
2022/11/09 13:03:56;;;;;;;2.72;1.60;;;22.40;47.20;;;;;;5014181;28;20193;-58
2022/11/09 13:06:28;;;;;;;3.20;1.55;;;22.40;47.20;;;;;;5014629;28;20200;-58
2022/11/09 13:09:06;;;;;;;2.63;1.60;;;22.40;47.20;;;;;;5031411;28;20246;-54
2022/11/09 13:11:44;;;;;;;2.92;1.60;;;22.40;47.20;;;;;;5033925;28;20564;-57
2022/11/09 13:14:48;;;;;;;2.63;1.55;;;22.40;47.10;;;;;;5033244;28;20704;-58
2022/11/09 13:18:02;;;;;;;2.33;1.48;;;22.40;47.10;;;;;;4992256;28;20205;-56
2022/11/09 13:20:49;;;;;;;4.63;1.80;;;22.30;47.10;;;;;;4972441;28;20269;-58
2022/11/09 13:23:35;;;;;;;2.80;1.60;;;22.40;47.20;;;;;;5033811;28;20203;-57
2022/11/09 13:26:22;;;;;;;1.80;1.25;;;22.30;47.20;;;;;;5033805;28;20200;-56
2022/11/09 13:29:11;;;;;;;2.75;1.70;;;22.30;47.20;;;;;;5033707;28;20192;-58